createdAt,value
2017-08-05T00:00:23.590Z,1006.32
2017-08-05T00:01:24.880Z,1006.37
2017-08-05T00:02:26.125Z,1006.33
2017-08-05T00:03:27.368Z,1006.39
2017-08-05T00:04:28.602Z,1006.35
2017-08-05T00:05:30.000Z,1006.28
2017-08-05T00:06:31.223Z,1006.31
2017-08-05T00:07:32.459Z,1006.3
2017-08-05T00:08:33.705Z,1006.31
2017-08-05T00:09:34.936Z,1006.32
2017-08-05T00:10:36.209Z,1006.31
2017-08-05T00:11:37.460Z,1006.3
2017-08-05T00:12:38.699Z,1006.29
2017-08-05T00:13:40.014Z,1006.25
2017-08-05T00:14:41.277Z,1006.27
2017-08-05T00:15:42.530Z,1006.27
2017-08-05T00:16:43.761Z,1006.3
2017-08-05T00:17:45.024Z,1006.28
2017-08-05T00:18:46.341Z,1006.25
2017-08-05T00:19:47.630Z,1006.3
2017-08-05T00:20:48.960Z,1006.26
2017-08-05T00:21:50.201Z,1006.27
2017-08-05T00:22:51.439Z,1006.25
2017-08-05T00:23:52.710Z,1006.21
2017-08-05T00:24:53.947Z,1006.24
2017-08-05T00:25:55.304Z,1006.16
2017-08-05T00:26:56.549Z,1006.12
2017-08-05T00:27:57.796Z,1006.09
2017-08-05T00:28:59.032Z,1006.08
2017-08-05T00:30:00.287Z,1006.04
2017-08-05T00:31:01.593Z,1006
2017-08-05T00:32:02.821Z,1006
2017-08-05T00:33:04.059Z,1006.02
2017-08-05T00:34:05.348Z,1006.05
2017-08-05T00:35:06.578Z,1006.09
2017-08-05T00:36:07.826Z,1006.04
2017-08-05T00:37:09.208Z,1006.01
2017-08-05T00:38:10.335Z,1006.01
2017-08-05T00:39:11.682Z,1006.02
2017-08-05T00:40:12.925Z,1005.98
2017-08-05T00:41:14.162Z,1006.04
2017-08-05T00:42:15.405Z,1006.05
2017-08-05T00:43:16.705Z,1006.03
2017-08-05T00:44:17.973Z,1006.05
2017-08-05T00:45:19.214Z,1006.03
2017-08-05T00:46:20.454Z,1006.05
2017-08-05T00:47:21.704Z,1006.05
2017-08-05T00:48:22.937Z,1006.06
2017-08-05T00:49:24.232Z,1006.08
2017-08-05T00:50:25.479Z,1006.05
2017-08-05T00:51:26.802Z,1006.09
2017-08-05T00:52:28.042Z,1006.08
2017-08-05T00:53:29.334Z,1006.07
2017-08-05T00:54:30.571Z,1006.09
2017-08-05T00:55:31.947Z,1006.07
2017-08-05T00:56:33.241Z,1006.08
2017-08-05T00:57:34.476Z,1006.05
2017-08-05T00:58:35.708Z,1006.07
2017-08-05T00:59:36.963Z,1006.08
2017-08-05T01:00:38.222Z,1006.06
2017-08-05T01:01:39.550Z,1006.04
2017-08-05T01:02:40.814Z,1006.03
2017-08-05T01:03:42.036Z,1006.03
2017-08-05T01:04:43.317Z,1006.04
2017-08-05T01:05:44.562Z,1006
2017-08-05T01:06:45.792Z,1005.99
2017-08-05T01:07:47.024Z,1005.99
2017-08-05T01:08:48.420Z,1006.02
2017-08-05T01:09:49.819Z,1006.02
2017-08-05T01:10:51.050Z,1006.01
2017-08-05T01:11:52.291Z,1006
2017-08-05T01:12:53.526Z,1006.06
2017-08-05T01:13:54.773Z,1006.14
2017-08-05T01:14:56.048Z,1006.14
2017-08-05T01:15:57.269Z,1006.1
2017-08-05T01:16:58.534Z,1006.06
2017-08-05T01:17:59.757Z,1006.06
2017-08-05T01:19:00.991Z,1006.02
2017-08-05T01:20:02.230Z,1006
2017-08-05T01:21:03.488Z,1005.99
2017-08-05T01:22:04.729Z,1005.99
2017-08-05T01:23:05.990Z,1006.01
2017-08-05T01:24:07.205Z,1006.03
2017-08-05T01:25:08.449Z,1006.07
2017-08-05T01:26:09.689Z,1006.08
2017-08-05T01:27:10.924Z,1006.09
2017-08-05T01:28:12.247Z,1006.09
2017-08-05T01:29:13.536Z,1006.12
2017-08-05T01:30:14.775Z,1006.1
2017-08-05T01:31:16.056Z,1006.11
2017-08-05T01:32:17.291Z,1006.08
2017-08-05T01:33:18.540Z,1006.1
2017-08-05T01:34:19.897Z,1006.1
2017-08-05T01:35:21.146Z,1006.11
2017-08-05T01:36:22.377Z,1006.06
2017-08-05T01:37:23.617Z,1006.03
2017-08-05T01:38:24.853Z,1006.02
2017-08-05T01:39:26.326Z,1005.96
2017-08-05T01:40:27.675Z,1005.95
2017-08-05T01:41:28.931Z,1005.96
2017-08-05T01:42:30.155Z,1005.93
2017-08-05T01:43:31.393Z,1005.91
2017-08-05T01:44:32.633Z,1005.88
2017-08-05T01:45:33.862Z,1005.89
2017-08-05T01:46:35.104Z,1005.88
2017-08-05T01:47:36.337Z,1005.87
2017-08-05T01:48:37.580Z,1005.89
2017-08-05T01:49:38.845Z,1005.85
2017-08-05T01:50:40.057Z,1005.86
2017-08-05T01:51:41.295Z,1005.81
2017-08-05T01:52:42.693Z,1005.86
2017-08-05T01:53:44.043Z,1005.85
2017-08-05T01:54:45.339Z,1005.89
2017-08-05T01:55:46.575Z,1005.95
2017-08-05T01:56:47.810Z,1006
2017-08-05T01:57:49.051Z,1006.04
2017-08-05T01:58:50.280Z,1006.09
2017-08-05T01:59:51.538Z,1006.14
2017-08-05T02:00:52.859Z,1006.17
2017-08-05T02:01:54.119Z,1006.2
2017-08-05T02:02:55.334Z,1006.16
2017-08-05T02:03:56.585Z,1006.2
2017-08-05T02:04:57.904Z,1006.12
2017-08-05T02:05:59.177Z,1006.04
2017-08-05T02:07:00.406Z,1006.02
2017-08-05T02:08:01.647Z,1006.02
2017-08-05T02:09:02.889Z,1005.99
2017-08-05T02:10:04.131Z,1006.04
2017-08-05T02:11:05.372Z,1006.06
2017-08-05T02:12:06.617Z,1006.07
2017-08-05T02:13:07.946Z,1006.07
2017-08-05T02:14:09.181Z,1006.06
2017-08-05T02:15:10.409Z,1006.09
2017-08-05T02:16:11.657Z,1006.09
2017-08-05T02:17:12.893Z,1006.03
2017-08-05T02:18:14.130Z,1006.04
2017-08-05T02:19:15.531Z,1006.06
2017-08-05T02:20:16.754Z,1006.04
2017-08-05T02:21:17.995Z,1006.05
2017-08-05T02:22:19.248Z,1006.06
2017-08-05T02:23:20.457Z,1006.08
2017-08-05T02:24:21.709Z,1006.07
2017-08-05T02:25:23.024Z,1006.09
2017-08-05T02:26:24.196Z,1006.04
2017-08-05T02:27:25.457Z,1006.05
2017-08-05T02:28:26.694Z,1006.05
2017-08-05T02:29:27.935Z,1006.04
2017-08-05T02:30:29.172Z,1006.04
2017-08-05T02:31:30.430Z,1006.1
2017-08-05T02:32:31.674Z,1006.17
2017-08-05T02:33:32.921Z,1006.22
2017-08-05T02:34:34.182Z,1006.29
2017-08-05T02:35:35.409Z,1006.3
2017-08-05T02:36:36.653Z,1006.31
2017-08-05T02:37:37.905Z,1006.3
2017-08-05T02:38:39.213Z,1006.3
2017-08-05T02:39:40.448Z,1006.18
2017-08-05T02:40:41.688Z,1006.13
2017-08-05T02:41:42.923Z,1006.11
2017-08-05T02:42:44.162Z,1006.06
2017-08-05T02:43:45.394Z,1006.05
2017-08-05T02:44:46.645Z,1006.05
2017-08-05T02:45:48.001Z,1006.04
2017-08-05T02:46:49.240Z,1006.11
2017-08-05T02:47:50.474Z,1006.11
2017-08-05T02:48:51.720Z,1006.14
2017-08-05T02:49:52.957Z,1006.15
2017-08-05T02:50:54.247Z,1006.18
2017-08-05T02:51:55.586Z,1006.19
2017-08-05T02:52:56.845Z,1006.2
2017-08-05T02:53:58.086Z,1006.17
2017-08-05T02:54:59.335Z,1006.13
2017-08-05T02:56:00.685Z,1006.17
2017-08-05T02:57:01.951Z,1006.17
2017-08-05T02:58:03.180Z,1006.19
2017-08-05T02:59:04.419Z,1006.16
2017-08-05T03:00:05.660Z,1006.22
2017-08-05T03:01:06.891Z,1006.19
2017-08-05T03:02:08.250Z,1006.15
2017-08-05T03:03:09.589Z,1006.15
2017-08-05T03:04:10.839Z,1006.11
2017-08-05T03:05:12.063Z,1006.06
2017-08-05T03:06:13.344Z,1006.07
2017-08-05T03:07:14.583Z,1006.04
2017-08-05T03:08:15.820Z,1006.03
2017-08-05T03:09:17.053Z,1006.06
2017-08-05T03:10:18.396Z,1006.05
2017-08-05T03:11:19.631Z,1006.02
2017-08-05T03:12:20.868Z,1006.08
2017-08-05T03:13:22.098Z,1006.07
2017-08-05T03:14:23.341Z,1006.09
2017-08-05T03:15:24.575Z,1006.12
2017-08-05T03:16:25.920Z,1006.13
2017-08-05T03:17:27.155Z,1006.1
2017-08-05T03:18:28.387Z,1006.08
2017-08-05T03:19:29.613Z,1006.08
2017-08-05T03:20:30.843Z,1006.06
2017-08-05T03:21:32.120Z,1006.02
2017-08-05T03:22:33.441Z,1006.04
2017-08-05T03:23:34.610Z,1006.03
2017-08-05T03:24:35.909Z,1006.01
2017-08-05T03:25:37.151Z,1006.02
2017-08-05T03:26:38.391Z,1006.04
2017-08-05T03:27:39.624Z,1006.02
2017-08-05T03:28:40.855Z,1006.02
2017-08-05T03:29:42.196Z,1006.01
2017-08-05T03:30:43.536Z,1006
2017-08-05T03:31:44.776Z,1006.02
2017-08-05T03:32:46.021Z,1005.97
2017-08-05T03:33:47.250Z,1005.95
2017-08-05T03:34:48.503Z,1005.9
2017-08-05T03:35:49.761Z,1005.91
2017-08-05T03:36:51.051Z,1005.85
2017-08-05T03:37:52.288Z,1005.84
2017-08-05T03:38:53.521Z,1005.9
2017-08-05T03:39:54.756Z,1005.98
2017-08-05T03:40:55.995Z,1006.01
2017-08-05T03:41:57.265Z,1006.1
2017-08-05T03:42:58.479Z,1006.06
2017-08-05T03:43:59.766Z,1006.07
2017-08-05T03:45:01.001Z,1006.11
2017-08-05T03:46:02.243Z,1006.13
2017-08-05T03:47:03.491Z,1006.09
2017-08-05T03:48:04.778Z,1006.02
2017-08-05T03:49:06.106Z,1006.02
2017-08-05T03:50:07.329Z,1006.02
2017-08-05T03:51:08.592Z,1005.99
2017-08-05T03:52:09.831Z,1005.99
2017-08-05T03:53:11.045Z,1005.89
2017-08-05T03:54:13.034Z,1005.8
2017-08-05T03:55:14.864Z,1005.79
2017-08-05T03:56:16.114Z,1005.81
2017-08-05T03:57:17.362Z,1005.82
2017-08-05T03:58:18.592Z,1005.82
2017-08-05T03:59:19.894Z,1005.79
2017-08-05T04:00:21.121Z,1005.8
2017-08-05T04:01:22.388Z,1005.77
2017-08-05T04:02:23.591Z,1005.8
2017-08-05T04:03:24.826Z,1005.81
2017-08-05T04:04:26.176Z,1005.79
2017-08-05T04:05:27.416Z,1005.82
2017-08-05T04:06:28.664Z,1005.82
2017-08-05T04:07:29.909Z,1005.88
2017-08-05T04:08:31.144Z,1005.87
2017-08-05T04:09:32.386Z,1005.91
2017-08-05T04:10:33.735Z,1005.89
2017-08-05T04:11:35.075Z,1005.92
2017-08-05T04:12:36.288Z,1005.91
2017-08-05T04:13:37.528Z,1005.87
2017-08-05T04:14:38.760Z,1005.85
2017-08-05T04:15:40.010Z,1005.85
2017-08-05T04:16:41.267Z,1005.84
2017-08-05T04:17:42.500Z,1005.82
2017-08-05T04:18:43.821Z,1005.87
2017-08-05T04:19:45.050Z,1005.86
2017-08-05T04:20:46.298Z,1005.87
2017-08-05T04:21:47.520Z,1005.88
2017-08-05T04:22:48.765Z,1005.91
2017-08-05T04:23:50.051Z,1005.99
2017-08-05T04:24:51.371Z,1006.03
2017-08-05T04:25:52.612Z,1006.04
2017-08-05T04:26:53.849Z,1006.06
2017-08-05T04:27:55.086Z,1006.05
2017-08-05T04:28:56.340Z,1006.04
2017-08-05T04:29:57.727Z,1005.99
2017-08-05T04:30:58.967Z,1005.98
2017-08-05T04:32:00.205Z,1006.01
2017-08-05T04:33:01.443Z,1006.05
2017-08-05T04:34:02.683Z,1006.05
2017-08-05T04:35:04.081Z,1006.03
2017-08-05T04:36:05.304Z,1006.02
2017-08-05T04:37:06.562Z,1006.03
2017-08-05T04:38:07.783Z,1006.02
2017-08-05T04:39:09.019Z,1006
2017-08-05T04:40:10.259Z,1006.03
2017-08-05T04:41:11.598Z,1006.06
2017-08-05T04:42:12.726Z,1006.1
2017-08-05T04:43:14.070Z,1006.1
2017-08-05T04:44:15.305Z,1006.1
2017-08-05T04:45:16.544Z,1006.05
2017-08-05T04:46:17.982Z,1006.1
2017-08-05T04:47:19.220Z,1006.1
2017-08-05T04:48:20.538Z,1006.13
2017-08-05T04:49:21.793Z,1006.13
2017-08-05T04:50:23.011Z,1006.14
2017-08-05T04:51:24.262Z,1006.09
2017-08-05T04:52:25.507Z,1006.11
2017-08-05T04:53:26.778Z,1006.04
2017-08-05T04:54:28.057Z,1006.02
2017-08-05T04:55:29.306Z,1006.02
2017-08-05T04:56:30.553Z,1006.01
2017-08-05T04:57:31.782Z,1006.05
2017-08-05T04:58:33.015Z,1005.99
2017-08-05T04:59:34.254Z,1006.01
2017-08-05T05:00:35.620Z,1005.91
2017-08-05T05:01:36.746Z,1005.82
2017-08-05T05:02:38.054Z,1005.79
2017-08-05T05:03:39.332Z,1005.78
2017-08-05T05:04:40.543Z,1005.71
2017-08-05T05:05:41.777Z,1005.8
2017-08-05T05:06:43.028Z,1005.85
2017-08-05T05:07:44.268Z,1005.89
2017-08-05T05:08:45.758Z,1005.91
2017-08-05T05:09:46.995Z,1005.87
2017-08-05T05:10:48.233Z,1005.87
2017-08-05T05:11:49.472Z,1005.84
2017-08-05T05:12:50.761Z,1005.77
2017-08-05T05:13:52.006Z,1005.73
2017-08-05T05:14:53.268Z,1005.72
2017-08-05T05:15:54.504Z,1005.72
2017-08-05T05:16:55.837Z,1005.73
2017-08-05T05:17:57.071Z,1005.72
2017-08-05T05:18:58.352Z,1005.72
2017-08-05T05:19:59.675Z,1005.72
2017-08-05T05:21:00.874Z,1005.72
2017-08-05T05:22:02.143Z,1005.72
2017-08-05T05:23:03.364Z,1005.72
2017-08-05T05:24:04.630Z,1005.71
2017-08-05T05:25:05.842Z,1005.75
2017-08-05T05:26:07.076Z,1005.74
2017-08-05T05:27:08.343Z,1005.75
2017-08-05T05:28:09.708Z,1005.77
2017-08-05T05:29:10.928Z,1005.75
2017-08-05T05:30:12.175Z,1005.8
2017-08-05T05:31:13.406Z,1005.84
2017-08-05T05:32:14.679Z,1005.77
2017-08-05T05:33:16.038Z,1005.77
2017-08-05T05:34:17.270Z,1005.81
2017-08-05T05:35:18.506Z,1005.8
2017-08-05T05:36:19.757Z,1005.83
2017-08-05T05:37:21.010Z,1005.82
2017-08-05T05:38:22.264Z,1005.83
2017-08-05T05:39:23.543Z,1005.87
2017-08-05T05:40:24.748Z,1005.88
2017-08-05T05:41:26.047Z,1005.91
2017-08-05T05:42:27.294Z,1005.93
2017-08-05T05:43:28.526Z,1005.96
2017-08-05T05:44:29.766Z,1005.96
2017-08-05T05:45:30.997Z,1005.96
2017-08-05T05:46:32.306Z,1005.96
2017-08-05T05:47:33.595Z,1005.99
2017-08-05T05:48:34.842Z,1005.98
2017-08-05T05:49:36.085Z,1005.96
2017-08-05T05:50:37.322Z,1006.03
2017-08-05T05:51:38.573Z,1005.96
2017-08-05T05:52:39.834Z,1005.96
2017-08-05T05:53:41.153Z,1005.88
2017-08-05T05:54:42.322Z,1005.88
2017-08-05T05:55:43.629Z,1005.97
2017-08-05T05:56:44.868Z,1005.99
2017-08-05T05:57:46.157Z,1006.04
2017-08-05T05:58:47.416Z,1005.98
2017-08-05T05:59:48.635Z,1005.99
2017-08-05T06:00:49.986Z,1005.99
2017-08-05T06:01:51.221Z,1005.99
2017-08-05T06:02:52.464Z,1005.99
2017-08-05T06:03:53.823Z,1005.92
2017-08-05T06:04:55.061Z,1005.95
2017-08-05T06:05:56.345Z,1005.95
2017-08-05T06:06:57.628Z,1005.91
2017-08-05T06:07:58.878Z,1005.94
2017-08-05T06:09:00.114Z,1006
2017-08-05T06:10:01.347Z,1006.05
2017-08-05T06:11:02.676Z,1006.07
2017-08-05T06:12:03.946Z,1006.07
2017-08-05T06:13:05.197Z,1006.11
2017-08-05T06:14:06.434Z,1006.02
2017-08-05T06:15:07.681Z,1005.92
2017-08-05T06:16:08.926Z,1005.97
2017-08-05T06:17:10.170Z,1005.98
2017-08-05T06:18:11.489Z,1005.95
2017-08-05T06:19:12.733Z,1005.93
2017-08-05T06:20:13.970Z,1005.88
2017-08-05T06:21:15.207Z,1005.79
2017-08-05T06:22:16.516Z,1005.75
2017-08-05T06:23:17.789Z,1005.72
2017-08-05T06:24:19.044Z,1005.78
2017-08-05T06:25:20.313Z,1005.72
2017-08-05T06:26:21.624Z,1005.72
2017-08-05T06:27:22.861Z,1005.73
2017-08-05T06:28:24.112Z,1005.67
2017-08-05T06:29:25.350Z,1005.64
2017-08-05T06:30:26.594Z,1005.54
2017-08-05T06:31:27.847Z,1005.53
2017-08-05T06:32:29.179Z,1005.46
2017-08-05T06:33:30.411Z,1005.44
2017-08-05T06:34:31.651Z,1005.42
2017-08-05T06:35:32.911Z,1005.4
2017-08-05T06:36:34.149Z,1005.41
2017-08-05T06:37:35.394Z,1005.4
2017-08-05T06:38:36.644Z,1005.5
2017-08-05T06:39:37.883Z,1005.5
2017-08-05T06:40:39.130Z,1005.5
2017-08-05T06:41:40.485Z,1005.55
2017-08-05T06:42:41.742Z,1005.64
2017-08-05T06:43:43.108Z,1005.73
2017-08-05T06:44:44.346Z,1005.81
2017-08-05T06:45:45.591Z,1005.94
2017-08-05T06:46:46.828Z,1006.04
2017-08-05T06:47:48.086Z,1006.12
2017-08-05T06:48:49.653Z,1006.19
2017-08-05T06:49:50.786Z,1006.23
2017-08-05T06:50:52.016Z,1006.3
2017-08-05T06:51:53.257Z,1006.28
2017-08-05T06:52:54.534Z,1006.33
2017-08-05T06:53:55.845Z,1006.32
2017-08-05T06:54:57.071Z,1006.29
2017-08-05T06:55:58.410Z,1006.33
2017-08-05T06:56:59.662Z,1006.29
2017-08-05T06:58:00.901Z,1006.23
2017-08-05T06:59:02.156Z,1006.19
2017-08-05T07:00:03.409Z,1006.11
2017-08-05T07:01:04.696Z,1006.12
2017-08-05T07:02:06.057Z,1006.08
2017-08-05T07:03:07.295Z,1006.02
2017-08-05T07:04:08.536Z,1006
2017-08-05T07:05:09.793Z,1005.96
2017-08-05T07:06:11.041Z,1005.88
2017-08-05T07:07:12.299Z,1005.95
2017-08-05T07:08:13.526Z,1005.91
2017-08-05T07:09:14.771Z,1005.97
2017-08-05T07:10:16.020Z,1005.98
2017-08-05T07:11:17.260Z,1005.98
2017-08-05T07:12:18.498Z,1005.97
2017-08-05T07:13:19.741Z,1005.96
2017-08-05T07:14:20.975Z,1005.95
2017-08-05T07:15:22.395Z,1005.94
2017-08-05T07:16:23.714Z,1005.96
2017-08-05T07:17:24.963Z,1006
2017-08-05T07:18:26.202Z,1005.99
2017-08-05T07:19:27.443Z,1005.99
2017-08-05T07:20:28.694Z,1006.04
2017-08-05T07:21:30.022Z,1006.07
2017-08-05T07:22:31.260Z,1006.08
2017-08-05T07:23:32.505Z,1006.05
2017-08-05T07:24:33.757Z,1006.03
2017-08-05T07:25:34.992Z,1005.99
2017-08-05T07:26:36.279Z,1005.94
2017-08-05T07:27:37.598Z,1005.94
2017-08-05T07:28:38.966Z,1005.99
2017-08-05T07:29:40.236Z,1006
2017-08-05T07:30:41.475Z,1005.96
2017-08-05T07:31:42.723Z,1005.96
2017-08-05T07:32:43.975Z,1005.84
2017-08-05T07:33:45.213Z,1005.81
2017-08-05T07:34:46.469Z,1005.85
2017-08-05T07:35:47.825Z,1005.82
2017-08-05T07:36:49.061Z,1005.84
2017-08-05T07:37:50.300Z,1005.88
2017-08-05T07:38:51.571Z,1005.9
2017-08-05T07:39:52.827Z,1005.94
2017-08-05T07:40:54.145Z,1005.99
2017-08-05T07:41:55.464Z,1006.04
2017-08-05T07:42:56.689Z,1006.06
2017-08-05T07:43:57.924Z,1006.12
2017-08-05T07:44:59.165Z,1006.14
2017-08-05T07:46:00.443Z,1006.17
2017-08-05T07:47:01.693Z,1006.21
2017-08-05T07:48:02.940Z,1006.26
2017-08-05T07:49:04.182Z,1006.26
2017-08-05T07:50:05.436Z,1006.3
2017-08-05T07:51:06.669Z,1006.33
2017-08-05T07:52:08.021Z,1006.3
2017-08-05T07:53:09.361Z,1006.23
2017-08-05T07:54:10.588Z,1006.22
2017-08-05T07:55:11.834Z,1006.16
2017-08-05T07:56:13.066Z,1006.13
2017-08-05T07:57:14.427Z,1006.1
2017-08-05T07:58:15.748Z,1006.08
2017-08-05T07:59:16.995Z,1006.02
2017-08-05T08:00:18.254Z,1005.96
2017-08-05T08:01:19.501Z,1005.95
2017-08-05T08:02:20.738Z,1005.94
2017-08-05T08:03:21.996Z,1006
2017-08-05T08:04:23.241Z,1006.02
2017-08-05T08:05:24.541Z,1006
2017-08-05T08:06:25.783Z,1006
2017-08-05T08:07:27.026Z,1006
2017-08-05T08:08:28.279Z,1005.98
2017-08-05T08:09:29.521Z,1006.03
2017-08-05T08:10:30.999Z,1006.01
2017-08-05T08:11:32.312Z,1006.02
2017-08-05T08:12:33.602Z,1006.02
2017-08-05T08:13:34.858Z,1006.06
2017-08-05T08:14:36.076Z,1006.07
2017-08-05T08:15:37.317Z,1006.04
2017-08-05T08:16:38.629Z,1006.04
2017-08-05T08:17:39.867Z,1006.05
2017-08-05T08:18:41.117Z,1006.05
2017-08-05T08:19:42.371Z,1006.01
2017-08-05T08:20:43.609Z,1006.01
2017-08-05T08:21:44.854Z,1005.96
2017-08-05T08:22:46.113Z,1005.93
2017-08-05T08:23:47.440Z,1005.88
2017-08-05T08:24:48.651Z,1005.82
2017-08-05T08:25:49.904Z,1005.85
2017-08-05T08:26:51.143Z,1005.79
2017-08-05T08:27:52.399Z,1005.77
2017-08-05T08:28:53.689Z,1005.7
2017-08-05T08:29:54.928Z,1005.74
2017-08-05T08:30:56.198Z,1005.78
2017-08-05T08:31:57.456Z,1005.76
2017-08-05T08:32:58.689Z,1005.79
2017-08-05T08:33:59.918Z,1005.79
2017-08-05T08:35:01.153Z,1005.81
2017-08-05T08:36:02.391Z,1005.79
2017-08-05T08:37:03.653Z,1005.81
2017-08-05T08:38:04.945Z,1005.88
2017-08-05T08:39:06.167Z,1005.91
2017-08-05T08:40:07.437Z,1005.91
2017-08-05T08:41:08.749Z,1005.89
2017-08-05T08:42:10.020Z,1005.93
2017-08-05T08:43:11.259Z,1005.94
2017-08-05T08:44:12.506Z,1005.87
2017-08-05T08:45:13.748Z,1005.84
2017-08-05T08:46:14.994Z,1005.87
2017-08-05T08:47:16.230Z,1005.81
2017-08-05T08:48:17.480Z,1005.79
2017-08-05T08:49:18.779Z,1005.81
2017-08-05T08:50:20.033Z,1005.81
2017-08-05T08:51:21.291Z,1005.87
2017-08-05T08:52:22.529Z,1005.9
2017-08-05T08:53:23.772Z,1005.91
2017-08-05T08:54:25.009Z,1005.95
2017-08-05T08:55:26.281Z,1005.97
2017-08-05T08:56:27.559Z,1005.95
2017-08-05T08:57:28.791Z,1005.96
2017-08-05T08:58:30.025Z,1005.92
2017-08-05T08:59:31.278Z,1005.92
2017-08-05T09:00:32.550Z,1005.9
2017-08-05T09:01:33.873Z,1005.86
2017-08-05T09:02:35.063Z,1005.86
2017-08-05T09:03:36.416Z,1005.82
2017-08-05T09:04:37.757Z,1005.75
2017-08-05T09:05:39.032Z,1005.69
2017-08-05T09:06:40.273Z,1005.64
2017-08-05T09:07:41.509Z,1005.61
2017-08-05T09:08:42.741Z,1005.66
2017-08-05T09:09:44.108Z,1005.68
2017-08-05T09:10:45.376Z,1005.78
2017-08-05T09:11:46.622Z,1005.89
2017-08-05T09:12:47.863Z,1005.95
2017-08-05T09:13:49.104Z,1005.99
2017-08-05T09:14:50.441Z,1005.98
2017-08-05T09:15:51.700Z,1005.92
2017-08-05T09:16:52.941Z,1005.88
2017-08-05T09:17:54.176Z,1005.84
2017-08-05T09:18:55.427Z,1005.83
2017-08-05T09:19:56.673Z,1005.82
2017-08-05T09:20:58.057Z,1005.8
2017-08-05T09:21:59.307Z,1005.84
2017-08-05T09:23:00.559Z,1005.87
2017-08-05T09:24:01.806Z,1005.83
2017-08-05T09:25:03.065Z,1005.84
2017-08-05T09:26:04.410Z,1005.79
2017-08-05T09:27:05.721Z,1005.82
2017-08-05T09:28:06.964Z,1005.9
2017-08-05T09:29:08.208Z,1005.95
2017-08-05T09:30:09.569Z,1006
2017-08-05T09:31:10.830Z,1006
2017-08-05T09:32:12.105Z,1006.03
2017-08-05T09:33:13.479Z,1006.03
2017-08-05T09:34:14.718Z,1005.99
2017-08-05T09:35:15.952Z,1005.99
2017-08-05T09:36:17.217Z,1006.02
2017-08-05T09:37:18.448Z,1005.95
2017-08-05T09:38:19.684Z,1005.9
2017-08-05T09:39:20.927Z,1005.85
2017-08-05T09:40:22.421Z,1005.8
2017-08-05T09:41:23.722Z,1005.83
2017-08-05T09:42:24.954Z,1005.84
2017-08-05T09:43:26.200Z,1005.87
2017-08-05T09:44:27.443Z,1005.84
2017-08-05T09:45:28.686Z,1005.85
2017-08-05T09:46:29.929Z,1005.86
2017-08-05T09:47:31.164Z,1005.91
2017-08-05T09:48:32.395Z,1005.99
2017-08-05T09:49:33.634Z,1006.07
2017-08-05T09:50:34.874Z,1006.1
2017-08-05T09:51:36.171Z,1006.16
2017-08-05T09:52:37.397Z,1006.21
2017-08-05T09:53:38.630Z,1006.18
2017-08-05T09:54:39.896Z,1006.16
2017-08-05T09:55:41.156Z,1006.18
2017-08-05T09:56:42.401Z,1006.21
2017-08-05T09:57:43.638Z,1006.21
2017-08-05T09:58:44.895Z,1006.24
2017-08-05T09:59:46.200Z,1006.27
2017-08-05T10:00:47.448Z,1006.28
2017-08-05T10:01:48.704Z,1006.31
2017-08-05T10:02:49.951Z,1006.29
2017-08-05T10:03:51.202Z,1006.33
2017-08-05T10:04:52.427Z,1006.36
2017-08-05T10:05:53.703Z,1006.43
2017-08-05T10:06:54.966Z,1006.33
2017-08-05T10:07:56.204Z,1006.34
2017-08-05T10:08:57.440Z,1006.35
2017-08-05T10:09:58.725Z,1006.31
2017-08-05T10:11:00.028Z,1006.37
2017-08-05T10:12:01.296Z,1006.43
2017-08-05T10:13:02.526Z,1006.44
2017-08-05T10:14:03.816Z,1006.38
2017-08-05T10:15:05.053Z,1006.38
2017-08-05T10:16:06.298Z,1006.39
2017-08-05T10:17:07.544Z,1006.42
2017-08-05T10:18:08.834Z,1006.45
2017-08-05T10:19:10.230Z,1006.42
2017-08-05T10:20:11.471Z,1006.35
2017-08-05T10:21:12.708Z,1006.38
2017-08-05T10:22:13.963Z,1006.3
2017-08-05T10:23:15.190Z,1006.41
2017-08-05T10:24:16.448Z,1006.48
2017-08-05T10:25:17.710Z,1006.51
2017-08-05T10:26:18.955Z,1006.56
2017-08-05T10:27:20.202Z,1006.57
2017-08-05T10:28:21.475Z,1006.58
2017-08-05T10:29:22.724Z,1006.5
2017-08-05T10:30:24.087Z,1006.45
2017-08-05T10:31:25.346Z,1006.43
2017-08-05T10:32:26.591Z,1006.4
2017-08-05T10:33:27.828Z,1006.48
2017-08-05T10:34:29.069Z,1006.5
2017-08-05T10:35:30.392Z,1006.43
2017-08-05T10:36:31.638Z,1006.36
2017-08-05T10:37:32.885Z,1006.36
2017-08-05T10:38:34.180Z,1006.3
2017-08-05T10:39:35.416Z,1006.23
2017-08-05T10:40:36.664Z,1006.21
2017-08-05T10:41:37.978Z,1006.15
2017-08-05T10:42:39.222Z,1006.08
2017-08-05T10:43:40.493Z,1006.07
2017-08-05T10:44:41.750Z,1006.12
2017-08-05T10:45:43.003Z,1006.11
2017-08-05T10:46:44.242Z,1006.12
2017-08-05T10:47:45.498Z,1006.07
2017-08-05T10:48:46.753Z,1006.01
2017-08-05T10:49:48.015Z,1005.96
2017-08-05T10:50:49.304Z,1005.96
2017-08-05T10:51:50.561Z,1005.99
2017-08-05T10:52:51.802Z,1006.08
2017-08-05T10:53:53.053Z,1006.08
2017-08-05T10:54:54.448Z,1006.13
2017-08-05T10:55:55.701Z,1006.14
2017-08-05T10:56:56.942Z,1006.15
2017-08-05T10:57:58.191Z,1006.15
2017-08-05T10:58:59.442Z,1006.19
2017-08-05T11:00:00.695Z,1006.22
2017-08-05T11:01:01.959Z,1006.22
2017-08-05T11:02:03.196Z,1006.22
2017-08-05T11:03:04.563Z,1006.24
2017-08-05T11:04:05.863Z,1006.21
2017-08-05T11:05:07.114Z,1006.23
2017-08-05T11:06:08.348Z,1006.25
2017-08-05T11:07:09.611Z,1006.32
2017-08-05T11:08:10.821Z,1006.34
2017-08-05T11:09:12.218Z,1006.39
2017-08-05T11:10:13.457Z,1006.36
2017-08-05T11:11:14.727Z,1006.4
2017-08-05T11:12:16.064Z,1006.46
2017-08-05T11:13:17.314Z,1006.48
2017-08-05T11:14:18.555Z,1006.49
2017-08-05T11:15:19.792Z,1006.5
2017-08-05T11:16:21.025Z,1006.48
2017-08-05T11:17:22.275Z,1006.46
2017-08-05T11:18:23.517Z,1006.5
2017-08-05T11:19:24.772Z,1006.47
2017-08-05T11:20:26.143Z,1006.5
2017-08-05T11:21:27.384Z,1006.58
2017-08-05T11:22:28.628Z,1006.47
2017-08-05T11:23:29.868Z,1006.44
2017-08-05T11:24:31.109Z,1006.44
2017-08-05T11:25:32.370Z,1006.44
2017-08-05T11:26:33.655Z,1006.45
2017-08-05T11:27:34.865Z,1006.46
2017-08-05T11:28:36.116Z,1006.45
2017-08-05T11:29:37.367Z,1006.4
2017-08-05T11:30:38.611Z,1006.41
2017-08-05T11:31:39.967Z,1006.4
2017-08-05T11:32:41.110Z,1006.44
2017-08-05T11:33:42.369Z,1006.36
2017-08-05T11:34:43.621Z,1006.32
2017-08-05T11:35:44.867Z,1006.27
2017-08-05T11:36:46.120Z,1006.14
2017-08-05T11:37:47.367Z,1006.07
2017-08-05T11:38:48.604Z,1006.03
2017-08-05T11:39:49.855Z,1006.13
2017-08-05T11:40:51.111Z,1006.16
2017-08-05T11:41:52.351Z,1006.25
2017-08-05T11:42:53.605Z,1006.34
2017-08-05T11:43:54.865Z,1006.38
2017-08-05T11:44:56.115Z,1006.29
2017-08-05T11:45:57.354Z,1006.32
2017-08-05T11:46:58.615Z,1006.31
2017-08-05T11:47:59.841Z,1006.37
2017-08-05T11:49:01.099Z,1006.44
2017-08-05T11:50:02.337Z,1006.47
2017-08-05T11:51:03.577Z,1006.44
2017-08-05T11:52:04.843Z,1006.45
2017-08-05T11:53:06.203Z,1006.45
2017-08-05T11:54:07.458Z,1006.41
2017-08-05T11:55:08.697Z,1006.47
2017-08-05T11:56:09.929Z,1006.5
2017-08-05T11:57:11.169Z,1006.49
2017-08-05T11:58:12.607Z,1006.5
2017-08-05T11:59:13.898Z,1006.48
2017-08-05T12:00:15.250Z,1006.46
2017-08-05T12:01:16.485Z,1006.45
2017-08-05T12:02:17.730Z,1006.42
2017-08-05T12:03:19.078Z,1006.47
2017-08-05T12:04:20.312Z,1006.49
2017-08-05T12:05:21.565Z,1006.46
2017-08-05T12:06:22.814Z,1006.38
2017-08-05T12:07:24.056Z,1006.4
2017-08-05T12:08:25.282Z,1006.35
2017-08-05T12:09:26.557Z,1006.38
2017-08-05T12:10:27.904Z,1006.38
2017-08-05T12:11:29.149Z,1006.41
2017-08-05T12:12:30.396Z,1006.37
2017-08-05T12:13:31.769Z,1006.38
2017-08-05T12:14:33.018Z,1006.32
2017-08-05T12:15:34.325Z,1006.31
2017-08-05T12:16:35.641Z,1006.39
2017-08-05T12:17:36.881Z,1006.32
2017-08-05T12:18:38.121Z,1006.36
2017-08-05T12:19:39.376Z,1006.43
2017-08-05T12:20:40.606Z,1006.4
2017-08-05T12:21:41.840Z,1006.35
2017-08-05T12:22:43.098Z,1006.32
2017-08-05T12:23:44.447Z,1006.27
2017-08-05T12:24:45.692Z,1006.35